Time;durP1;ratioP1;P1;durP2;ratioP2;P2;SDS_P1;SDS_P2;PMS_P1;PMS_P2;Temp;Humidity;BMP_temperature;BMP_pressure;BME280_temperature;BME280_humidity;BME280_pressure;Samples;Min_cycle;Max_cycle;Signal;HPM_P1;HPM_P2
2021/12/15 00:00:43;;;;;;;;;;;8.00;94.00;;;;;;5005588;28;19933;-60
2021/12/15 00:03:09;;;;;;;;;;;8.00;94.00;;;;;;4989421;28;19920;-60
2021/12/15 00:05:35;;;;;;;;;;;8.00;94.10;;;;;;5022766;28;20352;-60
2021/12/15 00:08:01;;;;;;;;;;;7.90;94.10;;;;;;4989451;28;19921;-60
2021/12/15 00:10:26;;;;;;;;;;;8.00;94.00;;;;;;5020339;28;19928;-61
2021/12/15 00:12:52;;;;;;;;;;;7.90;94.00;;;;;;5021339;28;20277;-60
2021/12/15 00:15:18;;;;;;;;;;;7.90;94.10;;;;;;5021993;28;19971;-60
2021/12/15 00:17:43;;;;;;;;;;;7.90;94.00;;;;;;4989950;28;20250;-62
2021/12/15 00:20:10;;;;;;;;;;;7.90;94.10;;;;;;5022412;28;19913;-62
2021/12/15 00:22:36;;;;;;;;;;;7.90;94.00;;;;;;5006293;28;19928;-62
2021/12/15 00:25:02;;;;;;;;;;;7.80;94.00;;;;;;4990021;28;19932;-62
2021/12/15 00:27:28;;;;;;;;;;;7.80;94.10;;;;;;5019417;28;20048;-62
2021/12/15 00:29:53;;;;;;;;;;;7.80;94.00;;;;;;5006321;28;19920;-63
2021/12/15 00:32:19;;;;;;;;;;;7.80;94.00;;;;;;5005898;28;19913;-62
2021/12/15 00:34:45;;;;;;;;;;;7.90;94.00;;;;;;4990171;28;19917;-63
2021/12/15 00:37:10;;;;;;;;;;;7.80;94.00;;;;;;4988753;28;20380;-62
2021/12/15 00:39:36;;;;;;;;;;;7.80;94.00;;;;;;4990118;28;20147;-62
2021/12/15 00:42:01;;;;;;;;;;;7.80;94.00;;;;;;4991922;28;20306;-62
2021/12/15 00:44:27;;;;;;;;;;;7.80;94.00;;;;;;5006406;28;19925;-62
2021/12/15 00:46:52;;;;;;;;;;;7.80;94.00;;;;;;5021407;28;19921;-62
2021/12/15 00:49:19;;;;;;;;;;;7.80;93.90;;;;;;5005519;28;20317;-63
2021/12/15 00:51:44;;;;;;;;;;;7.80;93.90;;;;;;5005766;28;19984;-62
2021/12/15 00:54:10;;;;;;;;;;;7.70;93.90;;;;;;5022840;28;20388;-62
2021/12/15 00:56:35;;;;;;;;;;;7.70;93.90;;;;;;5004097;28;19970;-63
2021/12/15 00:59:04;;;;;;;;;;;7.70;93.90;;;;;;4988674;28;19994;-62
2021/12/15 01:01:30;;;;;;;;;;;7.70;93.90;;;;;;4988810;28;20051;-62
2021/12/15 01:03:55;;;;;;;;;;;7.70;93.90;;;;;;5021731;28;19948;-62
2021/12/15 01:06:21;;;;;;;;;;;7.70;93.90;;;;;;5004577;28;19956;-63
2021/12/15 01:08:51;;;;;;;;;;;7.70;94.00;;;;;;5005922;28;19928;-63
2021/12/15 01:11:29;;;;;;;;;;;7.70;93.90;;;;;;5005239;28;19913;-62
2021/12/15 01:22:09;;;;;;;;;;;7.60;93.90;;;;;;5021637;28;19975;-60
2021/12/15 01:24:34;;;;;;;;;;;7.60;93.90;;;;;;5004859;28;20288;-60
2021/12/15 01:27:00;;;;;;;;;;;7.60;93.90;;;;;;4988268;28;19928;-60
2021/12/15 01:29:25;;;;;;;;;;;7.60;93.90;;;;;;5005294;28;19932;-60
2021/12/15 01:31:51;;;;;;;;;;;7.50;93.80;;;;;;4989548;28;19914;-61
2021/12/15 01:34:16;;;;;;;;;;;7.60;93.90;;;;;;5005935;28;19921;-60
2021/12/15 01:36:42;;;;;;;;;;;7.60;94.20;;;;;;5017944;28;19914;-60
2021/12/15 01:39:07;;;;;;;;;;;7.60;93.80;;;;;;5021419;28;19920;-60
2021/12/15 01:41:33;;;;;;;;;;;7.60;93.80;;;;;;5021217;28;19991;-60
2021/12/15 01:46:55;;;;;;;;;;;7.60;93.80;;;;;;5021340;28;19931;-60
2021/12/15 01:49:25;;;;;;;;;;;7.60;93.80;;;;;;5022613;28;19917;-60
2021/12/15 01:51:51;;;;;;;;;;;7.60;93.80;;;;;;5021118;28;19953;-60
2021/12/15 01:54:17;;;;;;;;;;;7.60;93.80;;;;;;5023447;28;20014;-60
2021/12/15 01:56:43;;;;;;;;;;;7.60;93.80;;;;;;5004555;28;19964;-60
2021/12/15 01:59:08;;;;;;;;;;;7.50;93.80;;;;;;5021840;28;19943;-60
2021/12/15 02:01:34;;;;;;;;;;;7.60;94.10;;;;;;4989023;28;19925;-60
2021/12/15 02:03:59;;;;;;;;;;;7.60;93.80;;;;;;4989647;28;20170;-60
2021/12/15 02:06:25;;;;;;;;;;;7.50;93.80;;;;;;5003902;28;19921;-60
2021/12/15 02:08:51;;;;;;;;;;;7.50;93.80;;;;;;5006781;28;19995;-60
2021/12/15 02:11:17;;;;;;;;;;;7.50;93.80;;;;;;4993210;28;20119;-60
2021/12/15 02:13:42;;;;;;;;;;;7.50;93.80;;;;;;5024841;28;19921;-60
2021/12/15 02:16:08;;;;;;;;;;;7.50;93.80;;;;;;5024556;28;19913;-60
2021/12/15 02:18:34;;;;;;;;;;;7.50;93.80;;;;;;5008152;28;19921;-60
2021/12/15 02:21:07;;;;;;;;;;;7.50;93.70;;;;;;5009570;28;19921;-60
2021/12/15 02:23:41;;;;;;;;;;;7.50;93.70;;;;;;5008726;28;20164;-60
2021/12/15 02:26:12;;;;;;;;;;;7.50;93.70;;;;;;5020558;28;20435;-60
2021/12/15 02:28:38;;;;;;;;;;;7.50;93.60;;;;;;5021918;28;19913;-60
2021/12/15 02:31:17;;;;;;;;;;;7.50;93.60;;;;;;5023580;28;19932;-60
2021/12/15 02:38:52;;;;;;;;;;;7.50;93.60;;;;;;5010044;28;20016;-60
2021/12/15 02:41:22;;;;;;;;;;;7.50;93.70;;;;;;5007572;28;20003;-60
2021/12/15 02:43:56;;;;;;;;;;;7.50;93.60;;;;;;5006537;28;19921;-60
2021/12/15 02:46:21;;;;;;;;;;;7.50;93.60;;;;;;5023682;28;19983;-60
2021/12/15 02:48:46;;;;;;;;;;;7.50;93.90;;;;;;5022306;28;19925;-60
2021/12/15 02:51:12;;;;;;;;;;;7.50;93.60;;;;;;5007277;28;20012;-60
2021/12/15 02:53:38;;;;;;;;;;;7.50;93.60;;;;;;4991069;28;19921;-60
2021/12/15 02:56:03;;;;;;;;;;;7.50;93.60;;;;;;5007170;28;19913;-61
2021/12/15 02:58:33;;;;;;;;;;;7.50;93.70;;;;;;5022032;28;19921;-60
2021/12/15 03:01:05;;;;;;;;;;;7.50;93.60;;;;;;5007333;28;19925;-60
2021/12/15 03:06:25;;;;;;;;;;;7.50;93.60;;;;;;5006337;28;20120;-60
2021/12/15 03:08:55;;;;;;;;;;;7.50;93.60;;;;;;5021352;28;19967;-60
2021/12/15 03:16:49;;;;;;;;;;;7.40;93.60;;;;;;5023078;28;19944;-60
2021/12/15 03:19:15;;;;;;;;;;;7.40;93.70;;;;;;4991693;28;20291;-60
2021/12/15 03:21:40;;;;;;;;;;;7.40;93.70;;;;;;5006100;28;20369;-60
2021/12/15 03:24:18;;;;;;;;;;;7.40;93.70;;;;;;5006089;28;19940;-60
2021/12/15 03:26:53;;;;;;;;;;;7.40;93.60;;;;;;4990320;28;19917;-60
2021/12/15 03:35:03;;;;;;;;;;;7.40;93.70;;;;;;5009770;28;20117;-62
2021/12/15 03:37:29;;;;;;;;;;;7.40;93.80;;;;;;4990580;28;20381;-62
2021/12/15 03:40:03;;;;;;;;;;;7.40;93.80;;;;;;5005873;28;19921;-62
2021/12/15 03:42:31;;;;;;;;;;;7.40;93.80;;;;;;5006956;28;19921;-63
2021/12/15 03:44:57;;;;;;;;;;;7.40;93.80;;;;;;5007280;28;19917;-62
2021/12/15 03:47:24;;;;;;;;;;;7.40;93.90;;;;;;5023245;28;19920;-62
2021/12/15 03:49:50;;;;;;;;;;;7.40;93.80;;;;;;5006973;28;19929;-63
2021/12/15 03:52:15;;;;;;;;;;;7.40;93.80;;;;;;5006223;28;19917;-63
2021/12/15 03:54:41;;;;;;;;;;;7.40;93.80;;;;;;4988344;28;19923;-63
2021/12/15 03:57:07;;;;;;;;;;;7.40;93.80;;;;;;4991616;28;19917;-62
2021/12/15 03:59:34;;;;;;;;;;;7.40;93.80;;;;;;5005414;28;20349;-62
2021/12/15 04:02:00;;;;;;;;;;;7.40;93.80;;;;;;5007367;28;19929;-60
2021/12/15 04:04:26;;;;;;;;;;;7.40;93.80;;;;;;5005990;28;19919;-60
2021/12/15 04:06:51;;;;;;;;;;;7.30;93.80;;;;;;5005509;28;19923;-60
2021/12/15 04:09:17;;;;;;;;;;;7.30;93.80;;;;;;4990159;28;19956;-60
2021/12/15 04:11:42;;;;;;;;;;;7.60;93.90;;;;;;5021406;28;19921;-60
2021/12/15 04:14:11;;;;;;;;;;;7.30;93.80;;;;;;5005570;28;19960;-60
2021/12/15 04:19:28;;;;;;;;;;;7.20;93.80;;;;;;5008034;28;19909;-60
2021/12/15 04:21:54;;;;;;;;;;;7.30;93.70;;;;;;5004997;28;19921;-60
2021/12/15 04:24:19;;;;;;;;;;;7.30;93.80;;;;;;5006268;28;19928;-60
2021/12/15 04:26:46;;;;;;;;;;;7.20;93.70;;;;;;5007125;28;20440;-60
2021/12/15 04:29:11;;;;;;;;;;;7.30;93.70;;;;;;5004700;28;19933;-60
2021/12/15 04:31:37;;;;;;;;;;;7.20;93.70;;;;;;4987483;28;19943;-60
2021/12/15 04:34:04;;;;;;;;;;;7.20;93.70;;;;;;4988137;28;20399;-60
2021/12/15 04:36:30;;;;;;;;;;;7.20;93.70;;;;;;4991422;28;20376;-61
2021/12/15 04:38:57;;;;;;;;;;;7.20;93.60;;;;;;4985811;28;20005;-61
2021/12/15 04:41:23;;;;;;;;;;;7.20;93.70;;;;;;5005395;28;19913;-60
2021/12/15 04:43:56;;;;;;;;;;;7.20;93.70;;;;;;5004119;28;20229;-61
2021/12/15 04:46:22;;;;;;;;;;;7.20;93.70;;;;;;5006819;28;20072;-61
2021/12/15 04:48:47;;;;;;;;;;;7.20;93.70;;;;;;4990963;28;19913;-61
2021/12/15 04:51:12;;;;;;;;;;;7.20;93.80;;;;;;4990887;28;19909;-61
2021/12/15 04:53:38;;;;;;;;;;;7.10;93.70;;;;;;5007281;28;20891;-61
2021/12/15 04:56:05;;;;;;;;;;;7.10;93.80;;;;;;4990612;28;19939;-60
2021/12/15 04:58:30;;;;;;;;;;;7.20;93.70;;;;;;5006440;28;20146;-61
2021/12/15 05:00:56;;;;;;;;;;;7.20;93.80;;;;;;5006119;28;20353;-60
2021/12/15 05:03:22;;;;;;;;;;;7.20;93.70;;;;;;4990714;28;19922;-61
2021/12/15 05:05:47;;;;;;;;;;;7.10;93.70;;;;;;5021900;28;19921;-61
2021/12/15 05:08:13;;;;;;;;;;;7.10;93.70;;;;;;5021675;28;20435;-61
2021/12/15 05:10:38;;;;;;;;;;;7.10;93.70;;;;;;4990891;28;19917;-61
2021/12/15 05:13:04;;;;;;;;;;;7.20;93.70;;;;;;5021307;28;20183;-61
2021/12/15 05:15:29;;;;;;;;;;;7.10;93.70;;;;;;5022472;28;19921;-61
2021/12/15 05:17:55;;;;;;;;;;;7.10;93.70;;;;;;4990053;28;20022;-61
2021/12/15 05:20:22;;;;;;;;;;;7.10;93.70;;;;;;4989692;28;19928;-61
2021/12/15 05:22:47;;;;;;;;;;;7.10;93.70;;;;;;5021642;28;19917;-61
2021/12/15 05:25:13;;;;;;;;;;;7.10;93.70;;;;;;4990729;28;19920;-61
2021/12/15 05:27:38;;;;;;;;;;;7.10;93.70;;;;;;5004917;28;19939;-60
2021/12/15 05:30:07;;;;;;;;;;;7.10;93.70;;;;;;4989657;28;19921;-60
2021/12/15 05:32:33;;;;;;;;;;;7.20;93.70;;;;;;5021677;28;20023;-61
2021/12/15 05:34:59;;;;;;;;;;;7.10;93.70;;;;;;5006568;28;19988;-61
2021/12/15 05:37:25;;;;;;;;;;;7.10;93.80;;;;;;5005724;28;19921;-60
2021/12/15 05:39:50;;;;;;;;;;;7.10;93.80;;;;;;4989812;28;19928;-60
2021/12/15 05:42:17;;;;;;;;;;;7.10;93.90;;;;;;5006602;28;20284;-60
2021/12/15 05:44:43;;;;;;;;;;;7.00;93.80;;;;;;5008633;28;19929;-61
2021/12/15 05:47:08;;;;;;;;;;;7.10;93.80;;;;;;4994271;28;19913;-60
2021/12/15 05:49:34;;;;;;;;;;;7.10;93.80;;;;;;4994245;28;19956;-61
2021/12/15 05:51:59;;;;;;;;;;;7.10;93.90;;;;;;5009778;28;19913;-61
2021/12/15 05:54:25;;;;;;;;;;;7.10;93.90;;;;;;5024952;28;19957;-61
2021/12/15 05:56:50;;;;;;;;;;;7.10;93.90;;;;;;5010725;28;19921;-62
2021/12/15 05:59:16;;;;;;;;;;;7.00;94.00;;;;;;5026094;28;20342;-61
2021/12/15 06:01:41;;;;;;;;;;;7.10;94.10;;;;;;5010099;28;19928;-61
2021/12/15 06:04:07;;;;;;;;;;;7.00;94.00;;;;;;5009224;28;20324;-61
2021/12/15 06:06:33;;;;;;;;;;;7.10;94.10;;;;;;5008408;28;20048;-62
2021/12/15 06:08:58;;;;;;;;;;;7.10;94.20;;;;;;5007904;28;19993;-61
2021/12/15 06:11:24;;;;;;;;;;;7.10;94.30;;;;;;5025324;28;20373;-61
2021/12/15 06:13:50;;;;;;;;;;;7.00;94.30;;;;;;4994046;28;19909;-64
2021/12/15 06:16:17;;;;;;;;;;;7.00;94.40;;;;;;4992936;28;19924;-61
2021/12/15 06:18:43;;;;;;;;;;;7.10;94.60;;;;;;5009961;28;19924;-61
2021/12/15 06:21:08;;;;;;;;;;;7.10;94.20;;;;;;5009577;28;19917;-61
2021/12/15 06:23:34;;;;;;;;;;;7.00;94.20;;;;;;5024459;28;19917;-61
2021/12/15 06:26:00;;;;;;;;;;;7.00;94.10;;;;;;5007700;28;20029;-61
2021/12/15 06:28:26;;;;;;;;;;;7.00;94.10;;;;;;5024323;28;19909;-61
2021/12/15 06:30:52;;;;;;;;;;;7.00;94.20;;;;;;5025946;28;19944;-62
2021/12/15 06:33:17;;;;;;;;;;;7.00;94.10;;;;;;4993431;28;19919;-61
2021/12/15 06:35:51;;;;;;;;;;;7.00;94.10;;;;;;5009803;28;19925;-61
2021/12/15 06:38:17;;;;;;;;;;;7.30;94.10;;;;;;5007252;28;19928;-61
2021/12/15 06:40:43;;;;;;;;;;;7.00;94.00;;;;;;4991616;28;19917;-61
2021/12/15 06:43:08;;;;;;;;;;;7.00;94.10;;;;;;5024349;28;19925;-61
2021/12/15 06:45:45;;;;;;;;;;;7.00;94.10;;;;;;5007630;28;19913;-61
2021/12/15 06:59:07;;;;;;;;;;;7.00;94.10;;;;;;5009043;28;19979;-61
2021/12/15 07:01:33;;;;;;;;;;;7.00;94.00;;;;;;4999512;28;19929;-61
2021/12/15 07:03:59;;;;;;;;;;;7.00;94.10;;;;;;4990777;28;19921;-61
2021/12/15 07:06:24;;;;;;;;;;;7.00;94.10;;;;;;5005797;28;19921;-61
2021/12/15 07:08:50;;;;;;;;;;;7.00;94.10;;;;;;5023980;28;19979;-61
2021/12/15 07:11:15;;;;;;;;;;;7.00;94.00;;;;;;5022418;28;19910;-61
2021/12/15 07:13:41;;;;;;;;;;;7.00;94.00;;;;;;5007166;28;20000;-62
2021/12/15 07:16:08;;;;;;;;;;;6.90;93.90;;;;;;5006832;28;19910;-61
2021/12/15 07:18:42;;;;;;;;;;;7.00;93.90;;;;;;5005964;28;20398;-61
2021/12/15 07:21:11;;;;;;;;;;;7.00;93.90;;;;;;5021492;28;20016;-61
2021/12/15 07:23:36;;;;;;;;;;;7.00;93.90;;;;;;5004519;28;19925;-61
2021/12/15 07:26:02;;;;;;;;;;;7.00;94.00;;;;;;5004506;28;19951;-61
2021/12/15 07:28:27;;;;;;;;;;;7.00;94.00;;;;;;4990473;28;19924;-61
2021/12/15 07:30:53;;;;;;;;;;;6.90;94.00;;;;;;5002667;28;20004;-61
2021/12/15 07:33:19;;;;;;;;;;;7.20;94.10;;;;;;5004225;28;20123;-61
2021/12/15 07:35:44;;;;;;;;;;;6.90;94.00;;;;;;5003363;28;20004;-61
2021/12/15 07:38:10;;;;;;;;;;;6.90;93.90;;;;;;5019371;28;19919;-61
2021/12/15 07:40:37;;;;;;;;;;;6.90;93.90;;;;;;5005930;28;19921;-61
2021/12/15 07:43:08;;;;;;;;;;;6.90;93.90;;;;;;4989345;28;19920;-61
2021/12/15 07:45:44;;;;;;;;;;;6.90;93.90;;;;;;5007530;28;19925;-61
2021/12/15 07:48:10;;;;;;;;;;;6.90;93.90;;;;;;5005687;28;19917;-61
2021/12/15 07:50:36;;;;;;;;;;;6.90;93.90;;;;;;4989508;28;20382;-61
2021/12/15 07:53:01;;;;;;;;;;;6.90;93.80;;;;;;5003168;28;19951;-61
2021/12/15 07:55:28;;;;;;;;;;;6.90;94.00;;;;;;4988704;28;20015;-61
2021/12/15 07:57:54;;;;;;;;;;;7.00;94.10;;;;;;5005759;28;20341;-61
2021/12/15 08:00:20;;;;;;;;;;;7.00;94.30;;;;;;4989497;28;19921;-61
2021/12/15 08:02:45;;;;;;;;;;;7.00;94.00;;;;;;5004138;28;19913;-62
2021/12/15 08:05:11;;;;;;;;;;;7.00;94.10;;;;;;4986805;28;20408;-61
2021/12/15 08:07:36;;;;;;;;;;;7.00;94.00;;;;;;4988905;28;19921;-61
2021/12/15 08:10:06;;;;;;;;;;;6.90;93.90;;;;;;5004691;28;20262;-61
2021/12/15 08:12:31;;;;;;;;;;;6.90;93.80;;;;;;5002659;28;20000;-61
2021/12/15 08:14:57;;;;;;;;;;;6.90;93.70;;;;;;5004207;28;20003;-61
2021/12/15 08:17:22;;;;;;;;;;;7.00;93.70;;;;;;5005167;28;19921;-61
2021/12/15 08:19:48;;;;;;;;;;;6.90;93.70;;;;;;4989746;28;19913;-63
2021/12/15 08:22:13;;;;;;;;;;;6.90;93.60;;;;;;5004395;28;20383;-61
2021/12/15 08:24:39;;;;;;;;;;;6.90;93.60;;;;;;4988439;28;19929;-61
2021/12/15 08:27:04;;;;;;;;;;;6.90;93.60;;;;;;4989090;28;19956;-61
2021/12/15 08:29:30;;;;;;;;;;;6.90;93.60;;;;;;5000125;28;20012;-61
2021/12/15 08:31:55;;;;;;;;;;;6.90;93.60;;;;;;4988447;28;20400;-61
2021/12/15 08:34:21;;;;;;;;;;;7.10;93.70;;;;;;4987813;28;19921;-61
2021/12/15 08:36:49;;;;;;;;;;;6.90;93.60;;;;;;5002373;28;19944;-61
2021/12/15 08:39:15;;;;;;;;;;;6.90;93.60;;;;;;5004217;28;19972;-61
2021/12/15 08:41:40;;;;;;;;;;;6.90;93.50;;;;;;4989449;28;19960;-62
2021/12/15 08:44:08;;;;;;;;;;;6.90;93.50;;;;;;4988569;28;20324;-61
2021/12/15 08:46:38;;;;;;;;;;;6.90;93.50;;;;;;4999766;28;20285;-61
2021/12/15 08:49:04;;;;;;;;;;;6.90;93.50;;;;;;5001285;28;19914;-61
2021/12/15 08:51:29;;;;;;;;;;;6.90;93.40;;;;;;4987867;28;20442;-61
2021/12/15 08:53:55;;;;;;;;;;;6.90;93.40;;;;;;4985560;28;19924;-61
2021/12/15 08:56:21;;;;;;;;;;;6.90;93.40;;;;;;5014300;28;19925;-61
2021/12/15 08:58:46;;;;;;;;;;;6.90;93.40;;;;;;5008456;28;19967;-61
2021/12/15 09:01:12;;;;;;;;;;;6.90;93.40;;;;;;4982573;28;19921;-61
2021/12/15 09:03:39;;;;;;;;;;;6.90;93.40;;;;;;4995436;28;19924;-61
2021/12/15 09:06:04;;;;;;;;;;;6.90;93.30;;;;;;4988342;28;19960;-61
2021/12/15 09:08:30;;;;;;;;;;;7.00;93.30;;;;;;5000594;28;19952;-61
2021/12/15 09:11:00;;;;;;;;;;;6.90;93.50;;;;;;4995571;28;19920;-61
2021/12/15 09:13:30;;;;;;;;;;;6.90;93.10;;;;;;5001912;28;19921;-61
2021/12/15 09:15:55;;;;;;;;;;;6.90;93.10;;;;;;5000600;28;19967;-61
2021/12/15 09:18:21;;;;;;;;;;;6.90;93.10;;;;;;4999907;28;19928;-61
2021/12/15 09:20:46;;;;;;;;;;;6.90;93.10;;;;;;5016071;28;20688;-64
2021/12/15 09:23:13;;;;;;;;;;;6.90;93.10;;;;;;5002734;28;20360;-61
2021/12/15 09:25:39;;;;;;;;;;;6.90;93.00;;;;;;5000740;28;19983;-61
2021/12/15 09:28:04;;;;;;;;;;;6.90;93.00;;;;;;5001768;28;19913;-61
2021/12/15 09:30:30;;;;;;;;;;;6.90;93.00;;;;;;5001599;28;19979;-61
2021/12/15 09:32:55;;;;;;;;;;;6.90;93.00;;;;;;4981833;28;20114;-61
2021/12/15 09:35:21;;;;;;;;;;;6.90;93.00;;;;;;4983467;28;19913;-61
2021/12/15 09:37:47;;;;;;;;;;;7.00;93.00;;;;;;4981201;28;20388;-61
2021/12/15 09:40:13;;;;;;;;;;;6.90;92.90;;;;;;4996077;28;19913;-61
2021/12/15 09:42:40;;;;;;;;;;;6.90;92.90;;;;;;4997676;28;19967;-61
2021/12/15 09:46:13;;;;;;;;;;;6.90;93.00;;;;;;5002084;28;19952;-61
2021/12/15 10:17:39;;;;;;;;;;;7.00;93.10;;;;;;4999019;28;19986;-61
2021/12/15 10:20:05;;;;;;;;;;;7.10;93.20;;;;;;4984984;28;19917;-64
2021/12/15 10:22:41;;;;;;;;;;;7.10;93.30;;;;;;5002091;28;19920;-61
2021/12/15 10:25:15;;;;;;;;;;;7.00;93.20;;;;;;4997867;28;19986;-61
2021/12/15 10:27:40;;;;;;;;;;;7.10;93.20;;;;;;5011948;28;19924;-61
2021/12/15 10:30:14;;;;;;;;;;;7.10;93.30;;;;;;5001289;28;20272;-61
2021/12/15 10:32:39;;;;;;;;;;;7.10;93.20;;;;;;4991454;28;19917;-61
2021/12/15 10:35:09;;;;;;;;;;;7.10;93.20;;;;;;5004255;28;20384;-61
2021/12/15 10:37:35;;;;;;;;;;;7.10;93.10;;;;;;4987225;28;19939;-61
2021/12/15 10:40:27;;;;;;;;;;;7.10;93.20;;;;;;4998833;28;19921;-61
2021/12/15 10:43:02;;;;;;;;;;;7.10;93.20;;;;;;4996410;28;19947;-61
2021/12/15 10:45:32;;;;;;;;;;;7.10;93.10;;;;;;5014401;28;20428;-61
2021/12/15 10:47:58;;;;;;;;;;;7.10;93.20;;;;;;4999640;28;19940;-61
2021/12/15 10:50:23;;;;;;;;;;;7.10;93.20;;;;;;4997626;28;19925;-61
2021/12/15 10:52:50;;;;;;;;;;;7.10;93.20;;;;;;5002198;28;19955;-61
2021/12/15 10:55:15;;;;;;;;;;;7.10;93.20;;;;;;5018662;28;20361;-61
2021/12/15 10:57:44;;;;;;;;;;;7.10;93.30;;;;;;5005648;28;19948;-61
2021/12/15 11:00:11;;;;;;;;;;;7.10;93.40;;;;;;4986555;28;20403;-61
2021/12/15 11:02:36;;;;;;;;;;;7.20;93.40;;;;;;4990403;28;19928;-61
2021/12/15 11:05:20;;;;;;;;;;;7.20;93.60;;;;;;5025353;28;19925;-61
2021/12/15 11:07:52;;;;;;;;;;;7.20;93.70;;;;;;5000206;28;19921;-61
2021/12/15 11:10:25;;;;;;;;;;;7.20;93.70;;;;;;5003781;28;19921;-61
2021/12/15 11:12:59;;;;;;;;;;;7.20;93.70;;;;;;5020549;28;19913;-61
2021/12/15 11:15:27;;;;;;;;;;;7.20;93.70;;;;;;5016045;28;19917;-62
2021/12/15 11:17:54;;;;;;;;;;;7.20;93.60;;;;;;4985626;28;19966;-62
2021/12/15 11:20:24;;;;;;;;;;;7.20;93.50;;;;;;4975838;28;20028;-61
2021/12/15 11:22:51;;;;;;;;;;;7.20;93.50;;;;;;5011656;28;19917;-61
2021/12/15 11:25:21;;;;;;;;;;;7.20;93.40;;;;;;4993204;28;19975;-62
2021/12/15 11:27:48;;;;;;;;;;;7.30;93.40;;;;;;5009144;28;19931;-63
2021/12/15 11:30:14;;;;;;;;;;;7.20;93.40;;;;;;5011293;28;19918;-63
2021/12/15 11:32:41;;;;;;;;;;;7.20;93.50;;;;;;5008173;28;19928;-61
2021/12/15 11:35:13;;;;;;;;;;;7.20;93.50;;;;;;4999002;28;19925;-61
2021/12/15 11:37:47;;;;;;;;;;;7.30;93.60;;;;;;5007350;28;20365;-61
2021/12/15 11:40:13;;;;;;;;;;;7.30;93.50;;;;;;5011044;28;20288;-60
2021/12/15 11:42:39;;;;;;;;;;;7.20;93.50;;;;;;5013839;28;20002;-60
2021/12/15 11:45:06;;;;;;;;;;;7.30;93.70;;;;;;5001247;28;20587;-60
2021/12/15 11:47:33;;;;;;;;;;;7.20;93.60;;;;;;5003269;28;20399;-63
2021/12/15 11:50:05;;;;;;;;;;;7.20;93.60;;;;;;5018158;28;19935;-63
2021/12/15 11:52:36;;;;;;;;;;;7.30;93.50;;;;;;4989061;28;19925;-63
2021/12/15 11:55:01;;;;;;;;;;;7.30;93.60;;;;;;5005527;28;19928;-60
2021/12/15 11:57:28;;;;;;;;;;;7.30;93.70;;;;;;4999140;28;19925;-62
2021/12/15 11:59:54;;;;;;;;;;;7.30;93.70;;;;;;5016980;28;20038;-63
2021/12/15 12:02:20;;;;;;;;;;;7.30;93.70;;;;;;5001730;28;19920;-63
2021/12/15 12:04:46;;;;;;;;;;;7.30;93.70;;;;;;5017612;28;20884;-61
2021/12/15 12:07:17;;;;;;;;;;;7.30;93.60;;;;;;5012253;28;19928;-61
2021/12/15 12:09:44;;;;;;;;;;;7.30;93.50;;;;;;4983814;28;20411;-61
2021/12/15 12:12:09;;;;;;;;;;;7.30;93.60;;;;;;5002195;28;20068;-61
2021/12/15 12:15:08;;;;;;;;;;;7.30;93.60;;;;;;4999253;28;19913;-61
2021/12/15 12:17:28;;;;;;;;;;;7.30;93.70;;;;;;5015446;28;19924;-61
2021/12/15 12:19:55;;;;;;;;;;;7.30;93.80;;;;;;5015212;28;19909;-60
2021/12/15 12:22:21;;;;;;;;;;;7.30;93.80;;;;;;5000173;28;19921;-60
2021/12/15 12:24:48;;;;;;;;;;;7.30;93.90;;;;;;5019850;28;20411;-61
2021/12/15 12:27:13;;;;;;;;;;;7.30;93.80;;;;;;4998961;28;19921;-61
2021/12/15 12:29:39;;;;;;;;;;;7.30;93.70;;;;;;4985667;28;19952;-61
2021/12/15 12:32:05;;;;;;;;;;;7.30;93.50;;;;;;4998957;28;19917;-64
2021/12/15 12:34:30;;;;;;;;;;;7.30;93.70;;;;;;5002332;28;20345;-61
2021/12/15 12:36:56;;;;;;;;;;;7.40;93.70;;;;;;4999469;28;19917;-60
2021/12/15 12:39:25;;;;;;;;;;;7.40;93.70;;;;;;4999143;28;19916;-61
2021/12/15 12:41:51;;;;;;;;;;;7.30;93.60;;;;;;4987509;28;19920;-61
2021/12/15 12:44:20;;;;;;;;;;;7.40;93.70;;;;;;5002307;28;20384;-60
2021/12/15 12:46:59;;;;;;;;;;;7.30;93.50;;;;;;4988101;28;19909;-61
2021/12/15 13:00:34;;;;;;;;;;;7.40;93.70;;;;;;5016797;28;20063;-63
2021/12/15 13:03:02;;;;;;;;;;;7.40;93.70;;;;;;5001763;28;20118;-63
2021/12/15 13:05:30;;;;;;;;;;;7.40;93.70;;;;;;5018380;28;19932;-63
2021/12/15 13:07:56;;;;;;;;;;;7.40;93.70;;;;;;4999484;28;20024;-64
2021/12/15 13:10:41;;;;;;;;;;;7.30;93.80;;;;;;5016187;28;19920;-64
2021/12/15 13:13:11;;;;;;;;;;;7.40;93.90;;;;;;4995472;28;20499;-62
2021/12/15 13:15:36;;;;;;;;;;;7.40;94.00;;;;;;4995913;28;20334;-63
2021/12/15 13:18:11;;;;;;;;;;;7.40;94.00;;;;;;4997351;28;19999;-61
2021/12/15 13:20:36;;;;;;;;;;;7.50;94.10;;;;;;5011702;28;19928;-61
2021/12/15 13:23:18;;;;;;;;;;;7.40;94.00;;;;;;5011785;28;20256;-61
2021/12/15 13:31:11;;;;;;;;;;;7.50;94.00;;;;;;5000853;28;19936;-61
2021/12/15 13:33:38;;;;;;;;;;;7.50;94.00;;;;;;4988607;28;19925;-61
2021/12/15 13:36:04;;;;;;;;;;;7.50;94.10;;;;;;5011587;28;20399;-61
2021/12/15 13:38:37;;;;;;;;;;;7.50;94.00;;;;;;4986760;28;19925;-60
2021/12/15 13:41:09;;;;;;;;;;;7.50;94.00;;;;;;4993203;28;19999;-60
2021/12/15 13:43:35;;;;;;;;;;;7.50;94.00;;;;;;4997946;28;20012;-61
2021/12/15 13:46:01;;;;;;;;;;;7.50;93.90;;;;;;4994544;28;19921;-61
2021/12/15 13:48:45;;;;;;;;;;;7.50;94.00;;;;;;4976978;28;19964;-61
2021/12/15 13:51:11;;;;;;;;;;;7.50;94.10;;;;;;5010063;28;19925;-62
2021/12/15 13:53:36;;;;;;;;;;;7.60;94.10;;;;;;4980622;28;19971;-63
2021/12/15 13:56:02;;;;;;;;;;;7.50;94.10;;;;;;4982872;28;19936;-63
2021/12/15 13:58:30;;;;;;;;;;;7.50;94.10;;;;;;4990151;28;19925;-62
2021/12/15 14:00:59;;;;;;;;;;;7.60;94.20;;;;;;5010832;28;19929;-61
2021/12/15 14:03:52;;;;;;;;;;;7.60;94.20;;;;;;5004173;28;19982;-61
2021/12/15 14:06:21;;;;;;;;;;;7.60;94.20;;;;;;5015853;28;19921;-61
2021/12/15 14:08:56;;;;;;;;;;;7.70;94.30;;;;;;5027881;28;19953;-61
2021/12/15 14:11:23;;;;;;;;;;;7.70;94.30;;;;;;5017224;28;19928;-61
2021/12/15 14:13:51;;;;;;;;;;;7.70;94.40;;;;;;5015362;28;19967;-61
2021/12/15 14:16:30;;;;;;;;;;;7.70;94.50;;;;;;5034176;28;19979;-61
2021/12/15 14:18:56;;;;;;;;;;;7.70;94.50;;;;;;5032419;28;19931;-61
2021/12/15 14:21:22;;;;;;;;;;;7.60;94.50;;;;;;5015933;28;20024;-61
2021/12/15 14:23:51;;;;;;;;;;;7.70;94.60;;;;;;5002665;28;19921;-61
2021/12/15 14:26:17;;;;;;;;;;;7.70;94.60;;;;;;5020021;28;20327;-60
2021/12/15 14:28:44;;;;;;;;;;;7.70;94.90;;;;;;5032330;28;19913;-61
2021/12/15 14:31:11;;;;;;;;;;;7.80;94.80;;;;;;5004900;28;20514;-60
2021/12/15 14:33:38;;;;;;;;;;;7.80;94.80;;;;;;4978112;28;20439;-63
2021/12/15 14:36:08;;;;;;;;;;;7.80;94.70;;;;;;5001051;28;20046;-60
2021/12/15 14:38:35;;;;;;;;;;;7.80;94.70;;;;;;5013812;28;20492;-61
2021/12/15 14:41:05;;;;;;;;;;;7.80;94.80;;;;;;5036787;28;20588;-60
2021/12/15 14:43:30;;;;;;;;;;;7.80;94.80;;;;;;5017415;28;19921;-61
2021/12/15 14:45:56;;;;;;;;;;;7.80;95.00;;;;;;5036371;28;20451;-60
2021/12/15 14:48:22;;;;;;;;;;;7.80;95.00;;;;;;5003603;28;20019;-60
2021/12/15 14:50:48;;;;;;;;;;;7.80;94.90;;;;;;5006186;28;19956;-61
2021/12/15 14:53:13;;;;;;;;;;;7.90;95.20;;;;;;5034684;28;20359;-61
2021/12/15 14:55:40;;;;;;;;;;;7.90;94.90;;;;;;5022384;28;19925;-61
2021/12/15 14:58:06;;;;;;;;;;;7.90;95.00;;;;;;5010778;28;20060;-61
2021/12/15 15:00:36;;;;;;;;;;;7.80;94.80;;;;;;5020358;28;19940;-61
2021/12/15 15:03:03;;;;;;;;;;;7.80;94.70;;;;;;5017090;28;19960;-61
2021/12/15 15:05:29;;;;;;;;;;;7.90;94.80;;;;;;5018744;28;19935;-61
2021/12/15 15:07:57;;;;;;;;;;;7.90;94.90;;;;;;5005467;28;19921;-62
2021/12/15 15:10:23;;;;;;;;;;;7.90;94.90;;;;;;5017667;28;19913;-61
2021/12/15 15:12:49;;;;;;;;;;;7.90;94.80;;;;;;5021539;28;19929;-61
2021/12/15 15:15:18;;;;;;;;;;;7.90;94.80;;;;;;4997797;28;19932;-61
2021/12/15 15:17:51;;;;;;;;;;;7.90;94.80;;;;;;5004683;28;19917;-61
2021/12/15 15:20:20;;;;;;;;;;;7.90;94.70;;;;;;5028883;28;20369;-61
2021/12/15 15:22:46;;;;;;;;;;;7.90;94.70;;;;;;5012356;28;20355;-61
2021/12/15 15:25:16;;;;;;;;;;;7.90;94.80;;;;;;5014647;28;19972;-61
2021/12/15 15:27:42;;;;;;;;;;;8.00;94.90;;;;;;5004061;28;19921;-61
2021/12/15 15:30:09;;;;;;;;;;;7.90;94.90;;;;;;5024657;28;20123;-61
2021/12/15 15:32:35;;;;;;;;;;;8.00;94.80;;;;;;4999121;28;19932;-61
2021/12/15 15:35:11;;;;;;;;;;;8.00;94.90;;;;;;5017688;28;19921;-61
2021/12/15 15:37:36;;;;;;;;;;;8.00;94.90;;;;;;5015909;28;19913;-61
2021/12/15 15:40:17;;;;;;;;;;;8.00;95.10;;;;;;5012865;28;20321;-61
2021/12/15 15:42:42;;;;;;;;;;;8.00;95.20;;;;;;5035220;28;19993;-61
2021/12/15 15:45:18;;;;;;;;;;;8.00;95.20;;;;;;5016914;28;20844;-61
2021/12/15 15:47:44;;;;;;;;;;;8.10;95.10;;;;;;5033987;28;19924;-61
2021/12/15 15:50:09;;;;;;;;;;;8.00;94.80;;;;;;5013522;28;19925;-63
2021/12/15 15:52:41;;;;;;;;;;;8.00;94.80;;;;;;5016096;28;19924;-62
2021/12/15 15:55:07;;;;;;;;;;;8.00;94.90;;;;;;5000868;28;19975;-62
2021/12/15 15:57:32;;;;;;;;;;;8.00;94.90;;;;;;5016826;28;20487;-62
2021/12/15 15:59:58;;;;;;;;;;;8.00;94.90;;;;;;5008436;28;19935;-61
2021/12/15 16:02:23;;;;;;;;;;;8.00;94.80;;;;;;5013080;28;19923;-62